Time;durP1;ratioP1;P1;durP2;ratioP2;P2;SDS_P1;SDS_P2;PMS_P1;PMS_P2;Temp;Humidity;BMP_temperature;BMP_pressure;BME280_temperature;BME280_humidity;BME280_pressure;Samples;Min_cycle;Max_cycle;Signal;HPM_P1;HPM_P2
2022/12/23 00:02:20;;;;;;;257.23;44.00;;;7.40;99.90;;;;;;4974188;28;20459;-76
2022/12/23 00:04:46;;;;;;;236.30;41.05;;;7.40;99.90;;;;;;4965953;28;20049;-77
2022/12/23 00:07:11;;;;;;;275.17;42.53;;;7.30;99.90;;;;;;4982879;28;20054;-76
2022/12/23 00:09:37;;;;;;;287.45;43.22;;;7.40;99.90;;;;;;4967172;28;20050;-76
2022/12/23 00:15:05;;;;;;;396.42;46.55;;;7.40;99.90;;;;;;4980625;28;20043;-76
2022/12/23 00:17:32;;;;;;;408.98;50.60;;;7.30;99.90;;;;;;4967537;28;20145;-76
2022/12/23 00:19:58;;;;;;;447.08;51.65;;;7.30;99.90;;;;;;4980427;28;20042;-76
2022/12/23 00:23:03;;;;;;;458.83;55.35;;;7.40;99.90;;;;;;4981910;28;20054;-76
2022/12/23 00:25:11;;;;;;;321.63;46.38;;;7.30;99.90;;;;;;4976148;28;20065;-80
2022/12/23 00:27:37;;;;;;;362.75;46.90;;;7.30;99.90;;;;;;4984875;28;20093;-76
2022/12/23 00:30:05;;;;;;;480.23;51.47;;;7.30;99.90;;;;;;4944845;28;20065;-76
2022/12/23 00:32:31;;;;;;;437.75;52.60;;;7.30;99.90;;;;;;4939422;28;20081;-76
2022/12/23 00:34:56;;;;;;;284.55;45.38;;;7.30;99.90;;;;;;4968364;28;20054;-76
2022/12/23 00:37:22;;;;;;;288.27;46.28;;;7.30;99.90;;;;;;4950172;28;20489;-76
2022/12/23 00:45:16;;;;;;;361.13;49.88;;;7.30;99.90;;;;;;4978465;28;20047;-76
2022/12/23 00:50:29;;;;;;;320.35;48.63;;;7.30;99.90;;;;;;4970612;28;20124;-76
2022/12/23 00:52:55;;;;;;;330.10;48.92;;;7.30;99.90;;;;;;4966203;28;20046;-75
2022/12/23 00:55:21;;;;;;;332.02;50.33;;;7.30;99.90;;;;;;4937772;28;20097;-77
2022/12/23 00:57:47;;;;;;;507.55;59.20;;;7.30;99.90;;;;;;4959951;28;20578;-76
2022/12/23 01:00:14;;;;;;;532.20;58.55;;;7.30;99.90;;;;;;4967582;28;20054;-76
2022/12/23 01:05:36;;;;;;;474.00;53.78;;;7.30;99.90;;;;;;4966025;28;20143;-75
2022/12/23 01:08:03;;;;;;;420.00;53.65;;;7.30;99.90;;;;;;4955240;28;20637;-76
2022/12/23 01:10:29;;;;;;;517.45;57.80;;;7.20;99.90;;;;;;4963032;28;20046;-76
2022/12/23 01:12:55;;;;;;;371.20;50.10;;;7.30;99.90;;;;;;4955159;28;20054;-78
2022/12/23 01:15:20;;;;;;;363.65;50.40;;;7.20;99.90;;;;;;4954025;28;20488;-75
2022/12/23 01:17:46;;;;;;;372.27;50.88;;;7.20;99.90;;;;;;4955843;28;20053;-76
2022/12/23 01:20:12;;;;;;;340.02;48.42;;;7.30;99.90;;;;;;4972929;28;20053;-76
2022/12/23 01:22:37;;;;;;;329.25;48.13;;;7.30;99.90;;;;;;4943961;28;20042;-78
2022/12/23 01:25:03;;;;;;;335.60;47.78;;;7.30;99.90;;;;;;4962539;28;20042;-76
2022/12/23 01:27:29;;;;;;;404.27;50.85;;;7.30;99.90;;;;;;4958677;28;20125;-74
2022/12/23 01:29:55;;;;;;;416.90;50.63;;;7.20;99.90;;;;;;4978568;28;20141;-76
2022/12/23 01:32:20;;;;;;;584.25;57.53;;;7.30;99.90;;;;;;4955271;28;20043;-76
2022/12/23 01:34:46;;;;;;;481.88;53.88;;;7.30;99.90;;;;;;4973909;28;20108;-76
2022/12/23 01:37:12;;;;;;;505.92;52.22;;;7.20;99.90;;;;;;4989757;28;20530;-76
2022/12/23 01:39:37;;;;;;;532.92;55.17;;;7.30;99.90;;;;;;4972427;28;20072;-75
2022/12/23 01:44:53;;;;;;;328.92;43.67;;;7.30;99.90;;;;;;4988738;28;20056;-76
2022/12/23 01:47:32;;;;;;;458.85;49.53;;;7.20;99.90;;;;;;4990814;28;20099;-76
2022/12/23 01:50:04;;;;;;;383.52;45.25;;;7.30;99.90;;;;;;5004541;28;20179;-76
2022/12/23 01:52:33;;;;;;;320.45;42.45;;;7.20;99.90;;;;;;4982074;28;20367;-76
2022/12/23 01:54:59;;;;;;;232.52;37.83;;;7.30;99.90;;;;;;5004248;28;20044;-76
2022/12/23 01:57:25;;;;;;;296.23;40.97;;;7.20;99.90;;;;;;4974001;28;20045;-76
2022/12/23 02:05:26;;;;;;;347.00;43.15;;;7.30;99.90;;;;;;4963283;28;20088;-75
2022/12/23 02:11:05;;;;;;;387.35;43.50;;;7.30;99.90;;;;;;4975480;28;20050;-75
2022/12/23 02:16:15;;;;;;;380.58;44.00;;;7.30;99.90;;;;;;4964672;28;20435;-76
2022/12/23 02:16:43;;;;;;;348.27;42.25;;;7.30;99.90;;;;;;4986749;28;20460;-75
2022/12/23 02:19:33;;;;;;;293.77;39.30;;;7.20;99.90;;;;;;4972762;28;20053;-76
2022/12/23 02:22:26;;;;;;;311.45;42.60;;;7.20;99.90;;;;;;4989534;28;20046;-75
2022/12/23 02:25:06;;;;;;;220.60;37.83;;;7.20;99.90;;;;;;4989245;28;20050;-76
2022/12/23 02:28:05;;;;;;;252.45;39.58;;;7.30;99.90;;;;;;4991491;28;20190;-76
2022/12/23 02:30:52;;;;;;;200.07;37.65;;;7.30;99.90;;;;;;4961177;28;20051;-75
2022/12/23 02:33:28;;;;;;;;;;;7.30;99.90;;;;;;4990163;28;20784;-76
2022/12/23 02:35:57;;;;;;;227.48;37.45;;;7.30;99.90;;;;;;4991083;28;20260;-75
2022/12/23 02:38:28;;;;;;;267.38;38.88;;;7.30;99.90;;;;;;4977680;28;20045;-75
2022/12/23 02:41:24;;;;;;;250.30;37.30;;;7.30;99.90;;;;;;4983650;28;20133;-76
2022/12/23 02:44:01;;;;;;;249.40;38.88;;;7.30;99.90;;;;;;4977651;28;20160;-81
2022/12/23 02:46:32;;;;;;;253.70;40.20;;;7.30;99.90;;;;;;4986825;28;20053;-77
2022/12/23 02:49:07;;;;;;;231.38;39.25;;;7.30;99.90;;;;;;4990362;28;20053;-75
2022/12/23 02:51:38;;;;;;;296.33;41.35;;;7.30;99.90;;;;;;4990706;28;20049;-76
2022/12/23 02:54:07;;;;;;;254.77;40.95;;;7.30;99.90;;;;;;4988002;28;20061;-77
2022/12/23 02:56:36;;;;;;;295.83;43.08;;;7.30;99.90;;;;;;4992331;28;20521;-76
2022/12/23 02:59:14;;;;;;;343.10;43.10;;;7.30;99.90;;;;;;4990176;28;20046;-75
2022/12/23 03:01:41;;;;;;;356.33;45.17;;;7.30;99.90;;;;;;4972708;28;20104;-76
2022/12/23 03:04:08;;;;;;;305.67;38.83;;;7.30;99.90;;;;;;4991298;28;20136;-76
2022/12/23 03:06:46;;;;;;;351.15;43.15;;;7.30;99.90;;;;;;4997925;28;20049;-75
2022/12/23 03:09:22;;;;;;;263.90;40.00;;;7.30;99.90;;;;;;4974322;28;20896;-76
2022/12/23 03:12:02;;;;;;;308.02;39.88;;;7.20;99.90;;;;;;4994020;28;20137;-76
2022/12/23 03:15:08;;;;;;;345.10;43.95;;;7.30;99.90;;;;;;4985740;28;20518;-77
2022/12/23 03:17:46;;;;;;;303.35;40.28;;;7.30;99.90;;;;;;4989150;28;20050;-75
2022/12/23 03:20:44;;;;;;;320.25;40.15;;;7.30;99.90;;;;;;4992563;28;20124;-77
2022/12/23 03:23:25;;;;;;;287.38;38.75;;;7.30;99.90;;;;;;4975863;28;20590;-77
2022/12/23 03:26:20;;;;;;;343.15;43.60;;;7.30;99.90;;;;;;4986642;28;20108;-75
2022/12/23 03:29:16;;;;;;;293.45;41.28;;;7.30;99.90;;;;;;4988682;28;20061;-76
2022/12/23 03:31:43;;;;;;;286.55;39.88;;;7.30;99.90;;;;;;4992350;28;20096;-75
2022/12/23 03:34:13;;;;;;;378.27;44.58;;;7.20;99.90;;;;;;4988773;28;20046;-75
2022/12/23 03:36:56;;;;;;;285.45;40.97;;;7.20;99.90;;;;;;5000718;28;20104;-75
2022/12/23 03:39:27;;;;;;;301.92;41.50;;;7.20;99.90;;;;;;4993009;28;20073;-75
2022/12/23 03:42:00;;;;;;;340.27;44.28;;;7.20;99.90;;;;;;5003093;28;20447;-75
2022/12/23 03:44:36;;;;;;;356.45;43.33;;;7.20;99.90;;;;;;4993828;28;20499;-81
2022/12/23 03:47:12;;;;;;;311.05;43.25;;;7.20;99.90;;;;;;5015763;28;20050;-76
2022/12/23 03:49:50;;;;;;;335.65;41.47;;;7.20;99.90;;;;;;4991019;28;20968;-75
2022/12/23 03:52:20;;;;;;;353.55;42.97;;;7.20;99.90;;;;;;4974619;28;20120;-76
2022/12/23 03:54:51;;;;;;;300.33;42.63;;;7.20;99.90;;;;;;4992633;28;20050;-75
2022/12/23 03:57:19;;;;;;;247.23;38.38;;;7.20;99.90;;;;;;4992185;28;20089;-76
2022/12/23 03:59:49;;;;;;;360.10;44.08;;;7.20;99.90;;;;;;4974984;28;20492;-77
2022/12/23 04:02:45;;;;;;;288.45;41.50;;;7.20;99.90;;;;;;4976235;28;20566;-76
2022/12/23 04:05:26;;;;;;;230.90;37.30;;;7.20;99.90;;;;;;5006225;28;20125;-74
2022/12/23 04:08:03;;;;;;;260.77;39.60;;;7.20;99.90;;;;;;5002679;28;20300;-76
2022/12/23 04:10:30;;;;;;;236.82;38.60;;;7.20;99.90;;;;;;4988392;28;20042;-77
2022/12/23 04:12:56;;;;;;;263.50;39.47;;;7.10;99.90;;;;;;4973648;28;20133;-75
2022/12/23 04:15:24;;;;;;;229.75;36.80;;;7.10;99.90;;;;;;4986036;28;20050;-75
2022/12/23 04:17:51;;;;;;;243.07;39.13;;;7.10;99.90;;;;;;4982507;28;20046;-75
2022/12/23 04:20:17;;;;;;;266.52;39.28;;;7.10;99.90;;;;;;5007627;28;20057;-75
2022/12/23 04:22:43;;;;;;;236.30;38.40;;;7.10;99.90;;;;;;4991281;28;20050;-75
2022/12/23 04:25:11;;;;;;;220.07;37.75;;;7.10;99.90;;;;;;4983739;28;20034;-76
2022/12/23 04:27:36;;;;;;;241.98;37.88;;;7.10;99.90;;;;;;4999835;28;20042;-76
2022/12/23 04:30:03;;;;;;;210.25;36.53;;;7.10;99.90;;;;;;4986914;28;20053;-76
2022/12/23 04:32:29;;;;;;;230.32;37.85;;;7.10;99.90;;;;;;4990819;28;20399;-76
2022/12/23 04:34:55;;;;;;;257.90;38.83;;;7.00;99.90;;;;;;4973779;28;20054;-75
2022/12/23 04:37:20;;;;;;;277.05;40.55;;;7.00;99.90;;;;;;4987503;28;20121;-76
2022/12/23 04:39:46;;;;;;;257.65;38.58;;;7.00;99.90;;;;;;4976908;28;20153;-76
2022/12/23 04:42:12;;;;;;;301.10;40.53;;;7.00;99.90;;;;;;4978489;28;20057;-76
2022/12/23 04:44:37;;;;;;;237.68;38.25;;;7.00;99.90;;;;;;4982767;28;20053;-75
2022/12/23 04:47:03;;;;;;;288.75;41.35;;;6.90;99.90;;;;;;4967771;28;20040;-75
2022/12/23 04:49:30;;;;;;;313.73;39.75;;;7.00;99.90;;;;;;4975345;28;20045;-75
2022/12/23 04:51:56;;;;;;;201.48;35.75;;;6.90;99.90;;;;;;4987086;28;20053;-75
2022/12/23 04:54:22;;;;;;;210.63;35.72;;;6.90;99.90;;;;;;4992122;28;20045;-76
2022/12/23 04:56:47;;;;;;;233.13;37.63;;;6.90;99.90;;;;;;4986711;28;20567;-75
2022/12/23 04:59:13;;;;;;;246.02;36.17;;;7.00;99.90;;;;;;4976186;28;20038;-75
2022/12/23 05:01:40;;;;;;;208.25;34.28;;;7.00;99.90;;;;;;4987405;28;20046;-79
2022/12/23 05:04:07;;;;;;;197.27;32.15;;;7.00;99.90;;;;;;5002677;28;20540;-75
2022/12/23 05:06:34;;;;;;;231.65;33.10;;;7.00;99.90;;;;;;5005616;28;20112;-75
2022/12/23 05:09:00;;;;;;;218.52;33.28;;;6.90;99.90;;;;;;4984926;28;20042;-75
2022/12/23 05:11:26;;;;;;;195.05;33.25;;;6.90;99.90;;;;;;4990755;28;20108;-77
2022/12/23 05:13:51;;;;;;;241.52;35.35;;;6.90;99.90;;;;;;4991349;28;20125;-75
2022/12/23 05:16:18;;;;;;;263.27;35.90;;;6.90;99.90;;;;;;4975001;28;20488;-75
2022/12/23 05:18:43;;;;;;;242.55;34.92;;;6.90;99.90;;;;;;4991743;28;20042;-75
2022/12/23 05:21:09;;;;;;;289.35;36.13;;;6.80;99.90;;;;;;4990619;28;20100;-76
2022/12/23 05:23:35;;;;;;;263.23;35.85;;;6.80;99.90;;;;;;4975596;28;20096;-76
2022/12/23 05:26:01;;;;;;;250.85;35.22;;;6.80;99.90;;;;;;4987373;28;20046;-75
2022/12/23 05:28:27;;;;;;;223.25;34.33;;;6.80;99.90;;;;;;5009300;28;20050;-75
2022/12/23 05:31:00;;;;;;;231.93;33.72;;;6.70;99.90;;;;;;5000678;28;20060;-78
2022/12/23 05:33:26;;;;;;;259.73;35.20;;;6.70;99.90;;;;;;4983687;28;20076;-75
2022/12/23 05:35:52;;;;;;;260.20;34.67;;;6.70;99.90;;;;;;4938528;28;20397;-75
2022/12/23 05:38:17;;;;;;;257.60;35.20;;;6.70;99.90;;;;;;5008173;28;20167;-75
2022/12/23 05:40:43;;;;;;;362.40;37.55;;;6.70;99.90;;;;;;4990606;28;20514;-78
2022/12/23 05:43:09;;;;;;;321.00;35.83;;;6.80;99.90;;;;;;4955388;28;20038;-75
2022/12/23 05:45:35;;;;;;;352.83;38.58;;;6.80;99.90;;;;;;4983638;28;20046;-75
2022/12/23 05:48:01;;;;;;;281.92;37.05;;;6.80;99.90;;;;;;4988035;28;20049;-75
2022/12/23 05:50:27;;;;;;;324.45;36.58;;;6.80;99.90;;;;;;4973620;28;20066;-75
2022/12/23 05:52:54;;;;;;;407.17;40.17;;;6.80;99.90;;;;;;4996614;28;20052;-76
2022/12/23 05:55:20;;;;;;;399.00;41.47;;;6.90;99.90;;;;;;4990387;28;20064;-79
2022/12/23 05:57:46;;;;;;;331.52;39.38;;;6.80;99.90;;;;;;4956725;28;20046;-77
2022/12/23 06:00:13;;;;;;;361.05;40.50;;;6.90;99.90;;;;;;4971602;28;20050;-77
2022/12/23 06:02:39;;;;;;;367.60;41.70;;;6.80;99.90;;;;;;5001376;28;20456;-75
2022/12/23 06:05:05;;;;;;;339.50;41.15;;;6.80;99.90;;;;;;4983960;28;20124;-75
2022/12/23 06:07:31;;;;;;;372.85;43.90;;;6.80;99.90;;;;;;4985406;28;20054;-77
2022/12/23 06:09:56;;;;;;;380.58;44.03;;;6.70;99.90;;;;;;4990252;28;20070;-75
2022/12/23 06:12:22;;;;;;;396.52;41.90;;;6.80;99.90;;;;;;4988776;28;20049;-80
2022/12/23 06:14:48;;;;;;;348.23;38.50;;;6.70;99.90;;;;;;4986578;28;20455;-75
2022/12/23 06:17:13;;;;;;;470.38;42.67;;;6.70;99.90;;;;;;4955278;28;20358;-75
2022/12/23 06:19:39;;;;;;;446.33;42.17;;;6.70;99.90;;;;;;4969933;28;20050;-76
2022/12/23 06:22:05;;;;;;;406.08;37.63;;;6.70;99.90;;;;;;4955658;28;20053;-76
2022/12/23 06:24:30;;;;;;;451.00;40.65;;;6.70;99.90;;;;;;4974061;28;20050;-76
2022/12/23 06:26:56;;;;;;;395.70;38.85;;;6.80;99.90;;;;;;4974711;28;20099;-78
2022/12/23 06:29:22;;;;;;;482.67;43.13;;;6.70;99.90;;;;;;4973092;28;20515;-76
2022/12/23 06:31:47;;;;;;;435.58;39.20;;;6.70;99.90;;;;;;4992622;28;20049;-76
2022/12/23 06:34:13;;;;;;;420.52;39.92;;;6.70;99.90;;;;;;4993048;28;20133;-75
2022/12/23 06:36:39;;;;;;;508.02;44.75;;;6.60;99.90;;;;;;4976261;28;20038;-76
2022/12/23 06:39:04;;;;;;;540.67;44.65;;;6.60;99.90;;;;;;4992959;28;20488;-76
2022/12/23 06:41:30;;;;;;;555.05;45.13;;;6.50;99.90;;;;;;4953090;28;20096;-76
2022/12/23 06:43:55;;;;;;;518.30;44.70;;;6.50;99.90;;;;;;4993817;28;20044;-75
2022/12/23 06:46:21;;;;;;;568.55;46.70;;;6.50;99.90;;;;;;4995409;28;20117;-76
2022/12/23 06:48:47;;;;;;;529.50;44.15;;;6.50;99.90;;;;;;4994209;28;20090;-77
2022/12/23 06:51:13;;;;;;;562.13;46.13;;;6.50;99.90;;;;;;4976139;28;20042;-78
2022/12/23 06:53:39;;;;;;;577.70;45.35;;;6.50;99.90;;;;;;4989761;28;20056;-76
2022/12/23 06:56:05;;;;;;;572.20;44.80;;;6.50;99.90;;;;;;4976365;28;20567;-76
2022/12/23 06:58:31;;;;;;;620.80;48.00;;;6.50;99.90;;;;;;4974002;28;20128;-75
2022/12/23 07:00:56;;;;;;;501.50;44.20;;;6.50;99.90;;;;;;4993678;28;20141;-76
2022/12/23 07:03:22;;;;;;;383.10;36.75;;;6.50;99.90;;;;;;4984711;28;20050;-77
2022/12/23 07:05:51;;;;;;;512.72;41.88;;;6.50;99.90;;;;;;4989432;28;20049;-75
2022/12/23 07:08:17;;;;;;;449.00;37.22;;;6.50;99.90;;;;;;4984513;28;20776;-76
2022/12/23 07:10:43;;;;;;;496.25;41.90;;;6.50;99.90;;;;;;4976536;28;20137;-75
2022/12/23 07:13:09;;;;;;;471.83;38.25;;;6.50;99.90;;;;;;4978399;28;20363;-76
2022/12/23 07:15:36;;;;;;;477.88;38.65;;;6.50;99.90;;;;;;4975979;28;20054;-76
2022/12/23 07:18:02;;;;;;;460.08;38.10;;;6.50;99.90;;;;;;4986777;28;20046;-76
2022/12/23 07:20:27;;;;;;;502.40;39.10;;;6.50;99.90;;;;;;4977974;28;20406;-75
2022/12/23 07:22:54;;;;;;;483.80;39.33;;;6.40;99.90;;;;;;4961514;28;20046;-75
2022/12/23 07:25:20;;;;;;;549.63;41.92;;;6.50;99.90;;;;;;4988128;28;20046;-76
2022/12/23 07:27:45;;;;;;;488.63;39.30;;;6.40;99.90;;;;;;4967858;28;20062;-75
2022/12/23 07:30:11;;;;;;;478.52;37.67;;;6.50;99.90;;;;;;4977080;28;20046;-75
2022/12/23 07:32:37;;;;;;;405.55;34.88;;;6.50;99.90;;;;;;4971871;28;20165;-77
2022/12/23 07:35:03;;;;;;;448.13;37.20;;;6.50;99.90;;;;;;4959557;28;20489;-75
2022/12/23 07:37:29;;;;;;;466.23;39.10;;;6.40;99.90;;;;;;4967992;28;20061;-79
2022/12/23 07:39:54;;;;;;;499.92;38.97;;;6.40;99.90;;;;;;4957957;28;20038;-75
2022/12/23 07:42:20;;;;;;;341.25;32.20;;;6.40;99.90;;;;;;4971640;28;20053;-79
2022/12/23 07:44:45;;;;;;;421.17;38.13;;;6.40;99.90;;;;;;4964258;28;20079;-76
2022/12/23 07:47:11;;;;;;;430.58;37.83;;;6.40;99.90;;;;;;4994506;28;20511;-76
2022/12/23 07:49:37;;;;;;;320.75;32.80;;;6.40;99.90;;;;;;4986363;28;20500;-81
2022/12/23 07:52:03;;;;;;;345.30;33.97;;;6.40;99.90;;;;;;4969605;28;20046;-75
2022/12/23 07:54:28;;;;;;;379.75;33.72;;;6.40;99.90;;;;;;4992645;28;20519;-75
2022/12/23 07:56:56;;;;;;;274.60;30.15;;;6.40;99.90;;;;;;4989422;28;20155;-75
2022/12/23 07:59:25;;;;;;;301.80;31.42;;;6.40;99.90;;;;;;4985011;28;20050;-75
2022/12/23 08:01:51;;;;;;;313.15;32.20;;;6.40;99.90;;;;;;4990411;28;20050;-75
2022/12/23 08:04:17;;;;;;;291.80;31.58;;;6.40;99.90;;;;;;4987011;28;20056;-77
2022/12/23 08:06:42;;;;;;;261.40;29.48;;;6.40;99.90;;;;;;4974541;28;20046;-77
2022/12/23 08:09:08;;;;;;;261.58;30.23;;;6.40;99.90;;;;;;4972499;28;20034;-76
2022/12/23 08:11:34;;;;;;;236.80;27.77;;;6.40;99.90;;;;;;4974545;28;20510;-77
2022/12/23 08:14:00;;;;;;;191.82;26.65;;;6.40;99.90;;;;;;4958535;28;20049;-77
2022/12/23 08:16:25;;;;;;;144.48;24.45;;;6.40;99.90;;;;;;4987339;28;20458;-75
2022/12/23 08:18:51;;;;;;;184.20;26.67;;;6.40;99.90;;;;;;4971738;28;20130;-76
2022/12/23 08:21:18;;;;;;;172.07;25.73;;;6.40;99.90;;;;;;4971557;28;20057;-75
2022/12/23 08:23:46;;;;;;;149.45;26.45;;;6.30;99.90;;;;;;4979508;28;20100;-83
2022/12/23 08:26:23;;;;;;;135.25;23.88;;;6.30;99.90;;;;;;4975770;28;20120;-82
2022/12/23 08:28:52;;;;;;;147.38;24.08;;;6.40;99.90;;;;;;4989193;28;20050;-77
2022/12/23 08:31:26;;;;;;;178.98;25.67;;;6.40;99.90;;;;;;4988669;28;20094;-76
2022/12/23 08:33:54;;;;;;;191.30;26.40;;;6.40;99.90;;;;;;4983070;28;20049;-76
2022/12/23 08:36:29;;;;;;;193.57;27.77;;;6.40;99.90;;;;;;4976913;28;20049;-77
2022/12/23 08:38:56;;;;;;;183.07;27.38;;;6.40;99.90;;;;;;4976506;28;20376;-75
2022/12/23 08:41:28;;;;;;;169.63;26.15;;;6.40;99.90;;;;;;4992535;28;20050;-76
2022/12/23 08:43:55;;;;;;;203.10;28.02;;;6.40;99.90;;;;;;4985699;28;20049;-76
2022/12/23 08:46:21;;;;;;;189.10;29.30;;;6.50;99.90;;;;;;4971306;28;20053;-75
2022/12/23 08:48:46;;;;;;;206.02;26.35;;;6.50;99.90;;;;;;4964573;28;20086;-81
2022/12/23 08:51:15;;;;;;;155.77;24.98;;;6.50;99.90;;;;;;4984617;28;20077;-77
2022/12/23 08:53:41;;;;;;;214.63;27.42;;;6.60;99.90;;;;;;4974474;28;20180;-77
2022/12/23 08:56:13;;;;;;;168.50;26.23;;;6.60;99.90;;;;;;4987803;28;20346;-77
2022/12/23 08:58:41;;;;;;;185.25;27.65;;;6.60;99.90;;;;;;4968317;28;20561;-76
2022/12/23 09:01:09;;;;;;;155.77;24.33;;;6.70;99.90;;;;;;4986739;28;20046;-77
2022/12/23 09:03:36;;;;;;;193.57;27.25;;;6.70;99.90;;;;;;5010204;28;20052;-78
2022/12/23 09:06:20;;;;;;;154.60;25.70;;;6.80;99.90;;;;;;4989081;28;20483;-76
2022/12/23 09:08:46;;;;;;;141.18;24.80;;;6.80;99.90;;;;;;4973227;28;20076;-76
2022/12/23 09:11:14;;;;;;;189.48;28.65;;;6.90;99.90;;;;;;4978540;28;20050;-75
2022/12/23 09:13:41;;;;;;;169.57;27.13;;;7.00;99.90;;;;;;4987497;28;21251;-78
2022/12/23 09:16:07;;;;;;;231.07;32.45;;;7.00;99.90;;;;;;4982986;28;20685;-77
2022/12/23 09:18:34;;;;;;;169.13;28.00;;;7.00;99.90;;;;;;4968104;28;20173;-75
2022/12/23 09:21:10;;;;;;;134.23;24.83;;;7.00;99.90;;;;;;4963359;28;20475;-77
2022/12/23 09:23:35;;;;;;;151.68;26.52;;;7.10;99.90;;;;;;4984140;28;20173;-77
2022/12/23 09:26:03;;;;;;;160.55;25.48;;;7.20;99.90;;;;;;4982290;28;20128;-79
2022/12/23 09:28:29;;;;;;;121.18;24.75;;;7.20;99.90;;;;;;4986461;28;20069;-77
2022/12/23 09:30:54;;;;;;;139.80;27.05;;;7.30;99.90;;;;;;4944445;28;20403;-82
2022/12/23 09:33:20;;;;;;;130.07;24.15;;;7.40;99.90;;;;;;4982653;28;20045;-75
2022/12/23 09:35:46;;;;;;;118.20;24.25;;;7.50;99.90;;;;;;4988509;28;20046;-77
2022/12/23 09:38:12;;;;;;;121.93;23.50;;;7.50;99.90;;;;;;4987060;28;20053;-76
2022/12/23 09:40:39;;;;;;;122.53;22.42;;;7.50;99.90;;;;;;4987790;28;20042;-77
2022/12/23 09:43:28;;;;;;;134.73;23.48;;;7.50;99.90;;;;;;4986246;28;20046;-75
2022/12/23 09:45:59;;;;;;;138.10;23.15;;;7.60;99.90;;;;;;4982357;28;20100;-83
2022/12/23 09:48:31;;;;;;;121.00;22.02;;;7.60;99.90;;;;;;4986976;28;20061;-74
2022/12/23 09:50:58;;;;;;;106.10;21.95;;;7.60;99.90;;;;;;4986343;28;20062;-82
2022/12/23 09:53:48;;;;;;;107.90;26.33;;;7.60;99.90;;;;;;4988452;28;20045;-74
2022/12/23 09:56:17;;;;;;;136.73;22.90;;;7.70;99.90;;;;;;4989896;28;20403;-74
2022/12/23 09:59:01;;;;;;;144.43;23.10;;;7.70;99.90;;;;;;4989510;28;20065;-75
2022/12/23 10:01:48;;;;;;;96.35;21.02;;;7.70;99.90;;;;;;4971580;28;20432;-76
2022/12/23 10:04:16;;;;;;;;;;;7.80;99.90;;;;;;4990159;28;20503;-75
2022/12/23 10:06:46;;;;;;;104.07;21.65;;;7.80;99.90;;;;;;5012373;28;19941;-80
2022/12/23 10:09:15;;;;;;;88.70;19.63;;;7.80;99.90;;;;;;5010834;28;20088;-78
2022/12/23 10:11:44;;;;;;;97.53;20.42;;;7.80;99.90;;;;;;4998328;28;20048;-77
2022/12/23 10:14:17;;;;;;;78.07;19.17;;;7.70;99.90;;;;;;5012658;28;20042;-82
2022/12/23 10:16:46;;;;;;;76.88;18.20;;;7.70;99.90;;;;;;4995671;28;20053;-79
2022/12/23 10:19:11;;;;;;;85.53;19.48;;;7.70;99.90;;;;;;4998320;28;20046;-75
2022/12/23 10:21:47;;;;;;;66.53;18.60;;;7.70;99.90;;;;;;4999608;28;20057;-80
2022/12/23 10:24:24;;;;;;;82.53;19.05;;;7.80;99.90;;;;;;5013938;28;20072;-75
2022/12/23 10:27:03;;;;;;;67.82;19.30;;;7.80;99.90;;;;;;5014885;28;20046;-77
2022/12/23 10:29:30;;;;;;;89.13;21.85;;;7.90;99.90;;;;;;5013173;28;20092;-75
2022/12/23 10:32:27;;;;;;;85.40;19.98;;;7.90;99.90;;;;;;4974513;28;20046;-76
2022/12/23 10:35:17;;;;;;;81.78;19.48;;;8.00;99.90;;;;;;4992779;28;20054;-75
2022/12/23 10:38:04;;;;;;;70.65;20.40;;;8.00;99.90;;;;;;5005426;28;20136;-74
2022/12/23 10:40:42;;;;;;;72.50;19.17;;;8.00;99.90;;;;;;4988036;28;20201;-78
2022/12/23 10:43:19;;;;;;;64.55;17.73;;;8.00;99.90;;;;;;4978798;28;20085;-76
2022/12/23 10:46:31;;;;;;;66.43;19.55;;;7.90;99.90;;;;;;4997613;28;20089;-75
2022/12/23 10:49:10;;;;;;;64.70;17.27;;;7.90;99.90;;;;;;5010415;28;20111;-74
2022/12/23 10:51:52;;;;;;;64.38;19.10;;;7.90;99.90;;;;;;5003864;28;20133;-75
2022/12/23 10:54:35;;;;;;;57.92;17.52;;;7.90;99.90;;;;;;5008160;28;20041;-75
2022/12/23 10:57:03;;;;;;;73.97;18.77;;;7.90;99.90;;;;;;4997619;28;20054;-72
2022/12/23 10:59:31;;;;;;;79.90;17.55;;;7.90;99.90;;;;;;5010680;28;20041;-72
2022/12/23 11:02:12;;;;;;;70.40;18.77;;;7.90;99.90;;;;;;5014132;28;20086;-76
2022/12/23 11:04:41;;;;;;;53.58;17.13;;;7.90;99.90;;;;;;4990412;28;20045;-74
2022/12/23 11:07:12;;;;;;;50.47;15.98;;;7.90;99.90;;;;;;4994636;28;20084;-81
2022/12/23 11:09:42;;;;;;;73.35;17.48;;;7.90;99.90;;;;;;5009810;28;20249;-75
2022/12/23 11:12:10;;;;;;;59.25;17.30;;;7.90;99.90;;;;;;4994340;28;20121;-82
2022/12/23 11:14:48;;;;;;;62.90;18.27;;;7.90;99.90;;;;;;4988894;28;20401;-74
2022/12/23 11:17:29;;;;;;;54.13;16.55;;;8.00;99.90;;;;;;5010071;28;20088;-74
2022/12/23 11:20:24;;;;;;;69.68;17.20;;;8.00;99.90;;;;;;4994540;28;20052;-74
2022/12/23 11:22:57;;;;;;;56.67;16.85;;;8.00;99.90;;;;;;4968150;28;20546;-76
2022/12/23 11:25:30;;;;;;;67.65;16.27;;;8.00;99.90;;;;;;5008788;28;20492;-79
2022/12/23 11:27:57;;;;;;;63.90;17.05;;;8.00;99.90;;;;;;5005626;28;20045;-75
2022/12/23 11:30:24;;;;;;;65.53;17.08;;;8.00;99.90;;;;;;4991376;28;20130;-75
2022/12/23 11:32:50;;;;;;;57.88;16.38;;;8.00;99.90;;;;;;4993793;28;20037;-75
2022/12/23 11:35:36;;;;;;;58.08;16.77;;;8.00;99.90;;;;;;4992283;28;20049;-74
2022/12/23 11:38:02;;;;;;;51.03;16.23;;;8.00;99.90;;;;;;4993876;28;20499;-74
2022/12/23 11:40:36;;;;;;;68.53;16.83;;;8.10;99.90;;;;;;4989481;28;20061;-75
2022/12/23 11:43:04;;;;;;;49.47;15.73;;;8.10;99.90;;;;;;5002868;28;20042;-75
2022/12/23 11:45:36;;;;;;;58.70;19.23;;;8.20;99.90;;;;;;4999137;28;20213;-72
2022/12/23 11:48:03;;;;;;;51.25;15.75;;;8.20;99.90;;;;;;5007515;28;20042;-74
2022/12/23 11:50:39;;;;;;;79.75;23.85;;;8.20;99.90;;;;;;4976073;28;20058;-75
2022/12/23 11:53:20;;;;;;;69.97;24.23;;;8.20;99.90;;;;;;4977933;28;20085;-75
2022/12/23 11:56:01;;;;;;;87.43;28.30;;;8.20;99.90;;;;;;4993865;28;20045;-75
2022/12/23 11:58:29;;;;;;;65.80;25.65;;;8.20;99.90;;;;;;4970845;28;20057;-75
2022/12/23 12:00:58;;;;;;;54.45;23.83;;;8.20;99.90;;;;;;4988646;28;20053;-72
2022/12/23 12:03:30;;;;;;;57.30;22.15;;;8.20;99.90;;;;;;5007371;28;20492;-74
2022/12/23 12:06:06;;;;;;;42.78;13.90;;;8.20;99.90;;;;;;4980727;28;20551;-73
2022/12/23 12:08:36;;;;;;;44.05;15.23;;;8.20;99.90;;;;;;5009811;28;20058;-74
2022/12/23 12:11:11;;;;;;;40.47;15.57;;;8.20;99.90;;;;;;4988370;28;20135;-74
2022/12/23 12:13:40;;;;;;;41.67;13.73;;;8.20;99.90;;;;;;4988131;28;20053;-78
2022/12/23 12:16:37;;;;;;;37.78;13.07;;;8.30;99.90;;;;;;5010710;28;20513;-74
2022/12/23 12:19:23;;;;;;;31.02;12.30;;;8.30;99.90;;;;;;4985896;28;20188;-74
2022/12/23 12:21:53;;;;;;;41.20;12.95;;;8.30;99.90;;;;;;4988680;28;20058;-77
2022/12/23 12:24:28;;;;;;;41.72;14.82;;;8.30;99.90;;;;;;4995676;28;20725;-81
2022/12/23 12:27:00;;;;;;;48.28;14.85;;;8.40;99.90;;;;;;5003278;28;20075;-76
2022/12/23 12:29:45;;;;;;;44.95;14.65;;;8.30;99.90;;;;;;4985578;28;20061;-74
2022/12/23 12:32:29;;;;;;;41.70;13.98;;;8.40;99.90;;;;;;4986377;28;20559;-77
2022/12/23 12:35:25;;;;;;;35.38;13.13;;;8.30;99.90;;;;;;4990219;28;20049;-74
2022/12/23 12:37:58;;;;;;;35.83;12.38;;;8.30;99.90;;;;;;5006242;28;20061;-80
2022/12/23 12:40:27;;;;;;;34.75;12.35;;;8.30;99.90;;;;;;4989284;28;20045;-74
2022/12/23 12:43:15;;;;;;;32.00;12.73;;;8.20;99.90;;;;;;5007694;28;20054;-74
2022/12/23 12:45:52;;;;;;;33.70;11.93;;;8.20;99.90;;;;;;5000180;28;20347;-74
2022/12/23 12:48:36;;;;;;;34.10;11.60;;;8.20;99.90;;;;;;4983685;28;20133;-74
2022/12/23 12:51:20;;;;;;;34.53;11.90;;;8.20;99.90;;;;;;4985414;28;20484;-74
2022/12/23 12:54:04;;;;;;;33.15;12.80;;;8.10;99.90;;;;;;4979938;28;20142;-74
2022/12/23 12:56:42;;;;;;;40.80;13.52;;;8.10;99.90;;;;;;4991973;28;20165;-74
2022/12/23 12:59:24;;;;;;;32.65;13.05;;;8.10;99.90;;;;;;5005668;28;20086;-74
2022/12/23 13:02:29;;;;;;;36.83;14.02;;;8.00;99.90;;;;;;4986560;28;20180;-77
2022/12/23 13:05:43;;;;;;;43.97;13.70;;;8.00;99.90;;;;;;4955269;28;20089;-72
2022/12/23 13:08:50;;;;;;;42.58;15.02;;;8.00;99.90;;;;;;4987456;28;20057;-74
2022/12/23 13:11:35;;;;;;;51.55;16.25;;;8.00;99.90;;;;;;4975576;28;20104;-74
2022/12/23 13:14:16;;;;;;;44.03;16.05;;;7.90;99.90;;;;;;4990416;28;20049;-76
2022/12/23 13:17:00;;;;;;;42.80;14.50;;;7.90;99.90;;;;;;4989692;28;20050;-77
2022/12/23 13:19:43;;;;;;;44.65;15.90;;;7.90;99.90;;;;;;4966472;28;20054;-81